Portland, Oregon
Traffic Map
Current Weather Conditions
Portland, Oregon
Overcast
Overcast
13°
Feels Like: 13°
Wind Chill: 13° Ceiling: 23000
Heat Index: 13° Visibility: 10mi
Dew Point: -8° Wind: 3mph
Humidity: 23% Direction: 60° (ENE)
Pressure: 30.02in Gusts: 0mph
Raw Report DataKPDX 020053Z 06003KT 10SM SCT150 OVC230 13/M08 A3002 RMK AO2 SLP165 T01281083
Traffic Incident Summary
Active as of:
Severity:
Category:
InformationThere was an issue retrieving the traffic information for this location. Please try a different location or try again shortly.
Advertisements
Track Severe Weather on mobile